Thunder radar more information blitzortung!


Rain radar more information rain snow radar


   Es ist keine erhoehte Aufmerksamkeit aufgrund des Wetters notwendig.   -   Es gibt keine Warnungen :-).

METAR-Meldungen aus der Umgebung

Warning: A non-numeric value encountered in /mnt/web301/a1/70/5400070/htdocs/weather28/metar/metarDisplay.php on line 166 Warning: A non-numeric value encountered in /mnt/web301/a1/70/5400070/htdocs/weather28/metar/metarDisplay.php on line 166 Warning: A non-numeric value encountered in /mnt/web301/a1/70/5400070/htdocs/weather28/metar/metarDisplay.php on line 166 Warning: A non-numeric value encountered in /mnt/web301/a1/70/5400070/htdocs/weather28/metar/metarDisplay.php on line 166 Warning: A non-numeric value encountered in /mnt/web301/a1/70/5400070/htdocs/weather28/metar/metarDisplay.php on line 166
   
EBBR - Brussels International Airport, Belgium
Entfernung von der Station bis: W 14 km
Aktualisierung: 27-05-2020 06:50
Klar  
Klar  
   Wind: NNW 5.6 km/h
Wind: NNW 5.6 km/h
Temperatur: 12°C
Taupunkt: 8°C
Luftfeuchte: 77%
Luftdruck: 1034 hPa
Sichtbarkeit: More than 10 km
Bewölkung: Klar
EBBR 270450Z 34003KT CAVOK 12/08 Q1034 NOSIG
EBBE - Beauvechain (Bevekom), Belgium
Entfernung von der Station bis: SSO 17 km
Aktualisierung: 27-05-2020 06:25
Klar  
Klar  
   Wind: variiert 1.9 km/h
Wind: variiert 1.9 km/h
Temperatur: 11°C
Taupunkt: 7°C
Luftfeuchte: 77%
Luftdruck: 1034 hPa
Bewölkt: Klar
Sichtbarkeit: More than 10 km
Bewölkung: Klar
EBBE 270425Z AUTO VRB01KT 9999 NCD 11/07 Q1034 BLU
EBDT - Schaffen, Belgium
Entfernung von der Station bis: ONO 29 km
Aktualisierung: 27-05-2020 06:25
Stark bewölkt  
Stark bewölkt  
   Wind: NW 5.6 km/h
Wind: NW 5.6 km/h
Temperatur: 11°C
Taupunkt: 9°C
Luftfeuchte: 88%
Luftdruck: 1034 hPa
Bewölkt: Stark bewölkt
Sichtbarkeit: 9 km
Bewölkung: leicht bewölkt 11000 ft,
Teilweise bewölkt 13000 ft,
Stark bewölkt 14000 ft
EBDT 270425Z AUTO 32003KT 9000 FEW110/// SCT130/// BKN140/// 11/09 Q1034 BLU
EBAW - Antwerp/Deurne, Belgium
Entfernung von der Station bis: NNW 38 km
Aktualisierung: 27-05-2020 06:50
Klar  
Klar  
   Wind: Norden 7.4 km/h
Wind: Norden 7.4 km/h
Temperatur: 14°C
Taupunkt: 9°C
Luftfeuchte: 72%
Luftdruck: 1034 hPa
Sichtbarkeit: More than 10 km
Bewölkung: Klar
EBAW 270450Z AUTO 36004KT CAVOK 14/09 Q1034
EBCI - Charleroi/Gosselies, Belgium
Entfernung von der Station bis: SSW 51 km
Aktualisierung: 27-05-2020 06:50
Klar  
Klar  
   Wind: Norden 5.6 km/h
Wind: Norden 5.6 km/h
Temperatur: 13°C
Taupunkt: 7°C
Luftfeuchte: 67%
Luftdruck: 1034 hPa
Sichtbarkeit: More than 10 km
Bewölkung: Klar
EBCI 270450Z AUTO 36003KT 320V030 CAVOK 13/07 Q1034
EBLG - Bierset/Liege, Belgium
Entfernung von der Station bis: OSO 60 km
Aktualisierung: 27-05-2020 06:50
Klar  
Klar  
   Wind: variiert 3.7 km/h
Wind: variiert 3.7 km/h
Temperatur: 13°C
Taupunkt: 6°C
Luftfeuchte: 63%
Luftdruck: 1034 hPa
Sichtbarkeit: More than 10 km
Bewölkung: Klar
EBLG 270450Z VRB02KT CAVOK 13/06 Q1034 NOSIG

Script entwickelt von  Saratoga-weather.org Angepasst für das Template von  Weerstation Leuven